createdAt,value
2018-12-19T00:00:19.739Z,0.50
2018-12-19T00:02:45.948Z,0.40
2018-12-19T00:05:12.200Z,0.50
2018-12-19T00:07:38.386Z,0.50
2018-12-19T00:10:04.658Z,0.60
2018-12-19T00:12:30.877Z,0.70
2018-12-19T00:14:57.029Z,0.70
2018-12-19T00:17:23.155Z,0.70
2018-12-19T00:19:49.364Z,0.80
2018-12-19T00:22:15.565Z,0.80
2018-12-19T00:24:41.717Z,0.90
2018-12-19T00:27:07.914Z,1.00
2018-12-19T00:29:34.171Z,1.00
2018-12-19T00:32:07.330Z,1.00
2018-12-19T00:34:33.485Z,1.00
2018-12-19T00:36:59.632Z,0.90
2018-12-19T00:39:25.754Z,0.80
2018-12-19T00:41:51.879Z,0.80
2018-12-19T00:44:18.015Z,0.70
2018-12-19T00:46:44.223Z,0.70
2018-12-19T00:49:10.413Z,0.70
2018-12-19T00:51:36.501Z,0.70
2018-12-19T00:54:02.769Z,0.80
2018-12-19T00:56:28.937Z,0.80
2018-12-19T00:58:55.151Z,0.70
2018-12-19T01:01:21.349Z,0.80
2018-12-19T01:03:47.525Z,0.80
2018-12-19T01:06:13.858Z,0.80
2018-12-19T01:08:40.001Z,0.70
2018-12-19T01:11:06.123Z,0.80
2018-12-19T01:13:32.267Z,0.70
2018-12-19T01:15:58.415Z,0.70
2018-12-19T01:18:24.568Z,0.50
2018-12-19T01:20:50.719Z,0.60
2018-12-19T01:23:16.921Z,0.60
2018-12-19T01:25:50.092Z,0.60
2018-12-19T01:28:16.247Z,0.60
2018-12-19T01:30:42.442Z,0.50
2018-12-19T01:33:08.612Z,0.40
2018-12-19T01:35:34.739Z,0.30
2018-12-19T01:38:00.819Z,0.20
2018-12-19T01:40:27.097Z,0.30
2018-12-19T01:43:00.221Z,0.30
2018-12-19T01:45:26.385Z,0.30
2018-12-19T01:47:52.885Z,0.30
2018-12-19T01:50:19.016Z,0.40
2018-12-19T01:52:45.151Z,0.40
2018-12-19T01:55:11.270Z,0.50
2018-12-19T01:57:37.418Z,0.40
2018-12-19T02:00:03.882Z,0.50
2018-12-19T02:02:30.023Z,0.40
2018-12-19T02:04:56.201Z,0.40
2018-12-19T02:07:22.381Z,0.40
2018-12-19T02:09:48.595Z,0.30
2018-12-19T02:12:14.802Z,0.30
2018-12-19T02:14:40.929Z,0.40
2018-12-19T02:17:07.145Z,0.30
2018-12-19T02:19:40.161Z,0.30
2018-12-19T02:22:06.296Z,0.20
2018-12-19T02:24:32.447Z,0.20
2018-12-19T02:26:58.616Z,0.10
2018-12-19T02:29:24.778Z,0.00
2018-12-19T02:31:50.958Z,0.00
2018-12-19T02:34:17.437Z,-0.10
2018-12-19T02:36:43.602Z,0.00
2018-12-19T02:39:09.789Z,0.00
2018-12-19T02:41:35.966Z,0.00
2018-12-19T02:44:02.461Z,-0.10
2018-12-19T02:46:28.682Z,-0.10
2018-12-19T02:48:55.124Z,0.00
2018-12-19T02:51:28.065Z,0.00
2018-12-19T02:53:54.221Z,0.00
2018-12-19T02:56:20.347Z,0.00
2018-12-19T02:58:46.501Z,0.10
2018-12-19T03:01:12.725Z,0.10
2018-12-19T03:03:38.855Z,0.20
2018-12-19T03:06:05.002Z,0.20
2018-12-19T03:08:31.205Z,0.10
2018-12-19T03:10:57.437Z,0.20
2018-12-19T03:13:23.647Z,0.10
2018-12-19T03:15:49.806Z,0.10
2018-12-19T03:18:16.202Z,0.20
2018-12-19T03:20:42.355Z,0.20
2018-12-19T03:23:15.428Z,0.20
2018-12-19T03:25:41.542Z,0.30
2018-12-19T03:28:07.717Z,0.30
2018-12-19T03:30:33.924Z,0.40
2018-12-19T03:33:00.096Z,0.40
2018-12-19T03:35:26.241Z,0.50
2018-12-19T03:37:52.447Z,0.50
2018-12-19T03:40:18.637Z,0.50
2018-12-19T03:42:51.749Z,0.60
2018-12-19T03:45:17.878Z,0.50
2018-12-19T03:47:51.083Z,0.50
2018-12-19T03:50:17.265Z,0.50
2018-12-19T03:52:43.432Z,0.50
2018-12-19T03:55:09.574Z,0.60
2018-12-19T03:57:35.829Z,0.60
2018-12-19T04:00:02.664Z,0.60
2018-12-19T04:02:28.911Z,0.60
2018-12-19T04:05:02.457Z,0.70
2018-12-19T04:07:28.669Z,0.70
2018-12-19T04:10:01.798Z,0.70
2018-12-19T04:12:27.939Z,0.80
2018-12-19T04:14:54.090Z,0.90
2018-12-19T04:17:20.784Z,1.00
2018-12-19T04:19:46.925Z,1.10
2018-12-19T04:22:13.070Z,1.00
2018-12-19T04:24:39.233Z,1.00
2018-12-19T04:27:05.373Z,1.10
2018-12-19T04:29:32.113Z,1.10
2018-12-19T04:31:58.273Z,1.10
2018-12-19T04:34:24.404Z,1.20
2018-12-19T04:36:50.540Z,1.20
2018-12-19T04:39:17.005Z,1.20
2018-12-19T04:41:43.171Z,1.30
2018-12-19T04:44:09.296Z,1.30
2018-12-19T04:46:35.415Z,1.20
2018-12-19T04:49:01.619Z,1.30
2018-12-19T04:51:27.737Z,1.30
2018-12-19T04:53:53.970Z,1.30
2018-12-19T04:56:20.613Z,1.30
2018-12-19T04:58:46.768Z,1.40
2018-12-19T05:01:12.897Z,1.30
2018-12-19T05:03:39.045Z,1.40
2018-12-19T05:06:05.184Z,1.40
2018-12-19T05:08:31.336Z,1.40
2018-12-19T05:10:57.501Z,1.40
2018-12-19T05:13:23.622Z,1.40
2018-12-19T05:15:49.811Z,1.50
2018-12-19T05:18:16.181Z,1.60
2018-12-19T05:20:42.517Z,1.60
2018-12-19T05:23:08.695Z,1.50
2018-12-19T05:25:34.828Z,1.50
2018-12-19T05:28:00.999Z,1.60
2018-12-19T05:30:27.192Z,1.50
2018-12-19T05:32:53.433Z,1.50
2018-12-19T05:35:19.605Z,1.50
2018-12-19T05:37:45.729Z,1.40
2018-12-19T05:40:11.889Z,1.50
2018-12-19T05:42:45.141Z,1.50
2018-12-19T05:45:11.317Z,1.50
2018-12-19T05:47:37.433Z,1.50
2018-12-19T05:50:05.346Z,1.50
2018-12-19T05:52:31.873Z,1.60
2018-12-19T05:54:58.268Z,1.50
2018-12-19T05:57:24.543Z,1.50
2018-12-19T05:59:50.641Z,1.50
2018-12-19T06:02:16.820Z,1.60
2018-12-19T06:04:43.036Z,1.60
2018-12-19T06:07:09.405Z,1.50
2018-12-19T06:09:35.534Z,1.50
2018-12-19T06:12:01.717Z,1.50
2018-12-19T06:14:27.827Z,1.60
2018-12-19T06:16:54.000Z,1.60
2018-12-19T06:19:20.109Z,1.50
2018-12-19T06:21:47.183Z,1.50
2018-12-19T06:24:13.347Z,1.60
2018-12-19T06:26:46.393Z,1.50
2018-12-19T06:29:12.746Z,1.50
2018-12-19T06:31:38.987Z,1.40
2018-12-19T06:34:05.148Z,1.40
2018-12-19T06:36:31.637Z,1.40
2018-12-19T06:38:57.817Z,1.40
2018-12-19T06:41:24.106Z,1.30
2018-12-19T06:43:50.818Z,1.30
2018-12-19T06:46:23.904Z,1.20
2018-12-19T06:48:49.969Z,1.20
2018-12-19T06:51:23.342Z,1.20
2018-12-19T06:53:49.493Z,1.20
2018-12-19T06:56:15.628Z,1.20
2018-12-19T06:58:48.704Z,1.20
2018-12-19T07:01:14.888Z,1.20
2018-12-19T07:03:41.040Z,1.30
2018-12-19T07:06:07.243Z,1.30
2018-12-19T07:08:33.438Z,1.30
2018-12-19T07:10:59.611Z,1.30
2018-12-19T07:13:25.962Z,1.40
2018-12-19T07:15:52.114Z,1.40
2018-12-19T07:18:18.275Z,1.50
2018-12-19T07:20:44.483Z,1.50
2018-12-19T07:23:10.640Z,1.50
2018-12-19T07:25:36.784Z,1.50
2018-12-19T07:28:03.012Z,1.50
2018-12-19T07:30:29.282Z,1.50
2018-12-19T07:32:55.427Z,1.50
2018-12-19T07:35:21.576Z,1.60
2018-12-19T07:37:47.756Z,1.60
2018-12-19T07:40:13.962Z,1.60
2018-12-19T07:42:40.128Z,1.60
2018-12-19T07:45:06.344Z,1.70
2018-12-19T07:47:32.503Z,1.60
2018-12-19T07:49:58.628Z,1.70
2018-12-19T07:52:24.781Z,1.70
2018-12-19T07:54:50.979Z,1.70
2018-12-19T07:57:17.156Z,1.70
2018-12-19T07:59:43.296Z,1.70
2018-12-19T08:02:09.491Z,1.70
2018-12-19T08:04:35.997Z,1.70
2018-12-19T08:07:02.199Z,1.60
2018-12-19T08:09:28.322Z,1.70
2018-12-19T08:11:54.411Z,1.70
2018-12-19T08:14:20.563Z,1.70
2018-12-19T08:16:46.729Z,1.60
2018-12-19T08:19:12.853Z,1.60
2018-12-19T08:21:46.123Z,1.70
2018-12-19T08:24:12.543Z,1.70
2018-12-19T08:26:39.032Z,1.80
2018-12-19T08:29:05.617Z,1.90
2018-12-19T08:31:31.737Z,1.80
2018-12-19T08:33:58.481Z,1.80
2018-12-19T08:36:24.729Z,1.90
2018-12-19T08:38:50.899Z,1.90
2018-12-19T08:41:17.071Z,2.00
2018-12-19T08:43:43.241Z,2.00
2018-12-19T08:46:14.555Z,2.00
2018-12-19T08:48:37.568Z,2.10
2018-12-19T08:51:03.737Z,2.00
2018-12-19T08:53:29.925Z,2.10
2018-12-19T08:55:56.119Z,2.00
2018-12-19T08:58:22.443Z,2.10
2018-12-19T09:00:50.625Z,2.20
2018-12-19T09:03:23.827Z,2.20
2018-12-19T09:05:49.952Z,2.20
2018-12-19T09:08:16.119Z,2.20
2018-12-19T09:10:42.277Z,2.20
2018-12-19T09:13:15.295Z,2.30
2018-12-19T09:15:47.606Z,2.30
2018-12-19T09:18:13.839Z,2.40
2018-12-19T09:20:39.961Z,2.30
2018-12-19T09:23:06.182Z,2.40
2018-12-19T09:25:32.661Z,2.30
2018-12-19T09:28:00.172Z,2.30
2018-12-19T09:30:26.361Z,2.30
2018-12-19T09:32:52.739Z,2.40
2018-12-19T09:35:26.088Z,2.50
2018-12-19T09:37:52.251Z,2.50
2018-12-19T09:40:25.427Z,2.60
2018-12-19T09:42:51.581Z,2.40
2018-12-19T09:45:17.690Z,2.50
2018-12-19T09:47:43.866Z,2.40
2018-12-19T09:50:10.058Z,2.30
2018-12-19T09:52:36.234Z,2.30
2018-12-19T09:55:02.513Z,2.40
2018-12-19T09:57:28.913Z,2.30
2018-12-19T09:59:55.074Z,2.40
2018-12-19T10:02:22.684Z,2.60
2018-12-19T10:04:48.884Z,2.50
2018-12-19T10:07:22.255Z,2.50
2018-12-19T10:09:48.391Z,2.60
2018-12-19T10:12:14.561Z,2.50
2018-12-19T10:14:40.725Z,2.40
2018-12-19T10:17:06.895Z,2.50
2018-12-19T10:19:33.087Z,2.40
2018-12-19T10:21:59.239Z,2.50
2018-12-19T10:27:25.415Z,2.50
2018-12-19T10:29:51.589Z,2.50
2018-12-19T10:32:17.710Z,2.50
2018-12-19T10:34:43.866Z,2.60
2018-12-19T10:37:10.052Z,2.70
2018-12-19T10:39:43.165Z,2.70
2018-12-19T10:42:09.852Z,2.70
2018-12-19T10:44:35.970Z,2.70
2018-12-19T10:47:02.121Z,2.70
2018-12-19T10:49:28.271Z,2.60
2018-12-19T10:51:54.385Z,2.50
2018-12-19T10:54:20.479Z,2.60
2018-12-19T10:56:46.586Z,2.70
2018-12-19T10:59:12.899Z,2.80
2018-12-19T11:01:39.063Z,2.70
2018-12-19T11:04:05.507Z,2.70
2018-12-19T11:06:31.661Z,2.80
2018-12-19T11:08:57.815Z,2.80
2018-12-19T11:11:23.980Z,2.80
2018-12-19T11:13:50.177Z,2.80
2018-12-19T11:16:16.356Z,2.80
2018-12-19T11:18:42.537Z,2.90
2018-12-19T11:21:08.720Z,2.90
2018-12-19T11:23:34.841Z,2.90
2018-12-19T11:26:01.037Z,3.00
2018-12-19T11:28:27.199Z,3.10
2018-12-19T11:30:53.460Z,3.00
2018-12-19T11:33:19.643Z,2.90
2018-12-19T11:35:45.841Z,2.80
2018-12-19T11:38:12.005Z,2.90
2018-12-19T11:40:38.189Z,2.90
2018-12-19T11:43:04.348Z,2.90
2018-12-19T11:45:30.553Z,2.90
2018-12-19T11:47:56.871Z,3.00
2018-12-19T11:50:23.279Z,3.00
2018-12-19T11:52:49.415Z,2.90
2018-12-19T11:55:15.541Z,3.00
2018-12-19T11:57:41.722Z,3.10
2018-12-19T12:00:08.199Z,3.00
2018-12-19T12:02:34.369Z,3.10
2018-12-19T12:05:00.587Z,3.20
2018-12-19T12:07:26.989Z,3.20
2018-12-19T12:09:53.205Z,3.10
2018-12-19T12:12:19.393Z,3.20
2018-12-19T12:14:45.517Z,3.10
2018-12-19T12:17:11.843Z,3.20
2018-12-19T12:19:38.147Z,3.20
2018-12-19T12:22:04.389Z,3.20
2018-12-19T12:24:30.597Z,3.20
2018-12-19T12:26:56.803Z,3.40
2018-12-19T12:29:22.937Z,3.40
2018-12-19T12:31:49.080Z,3.40
2018-12-19T12:34:15.288Z,3.30
2018-12-19T12:36:41.412Z,3.30
2018-12-19T12:39:07.583Z,3.30
2018-12-19T12:41:33.691Z,3.30
2018-12-19T12:43:59.890Z,3.30
2018-12-19T12:46:26.076Z,3.20
2018-12-19T12:48:52.307Z,3.20
2018-12-19T12:51:18.572Z,3.30
2018-12-19T12:53:44.743Z,3.30
2018-12-19T12:56:10.891Z,3.30
2018-12-19T12:58:44.234Z,3.30
2018-12-19T13:01:10.422Z,3.30
2018-12-19T13:03:36.555Z,3.30
2018-12-19T13:06:02.734Z,3.20
2018-12-19T13:08:28.854Z,3.20
2018-12-19T13:10:55.052Z,3.30
2018-12-19T13:13:21.270Z,3.30
2018-12-19T13:15:47.510Z,3.40
2018-12-19T13:21:17.097Z,3.30
2018-12-19T13:23:43.422Z,3.40
2018-12-19T13:26:10.029Z,3.40
2018-12-19T13:28:36.295Z,3.40
2018-12-19T13:31:02.508Z,3.30
2018-12-19T13:33:28.634Z,3.30
2018-12-19T13:35:54.832Z,3.20
2018-12-19T13:38:21.095Z,3.30
2018-12-19T13:40:47.252Z,3.20
2018-12-19T13:43:13.458Z,3.30
2018-12-19T13:45:39.663Z,3.30
2018-12-19T13:48:05.916Z,3.30
2018-12-19T13:50:32.143Z,3.20
2018-12-19T13:53:05.236Z,3.30
2018-12-19T13:55:31.804Z,3.30
2018-12-19T13:57:58.090Z,3.30
2018-12-19T14:00:24.944Z,3.30
2018-12-19T14:02:51.154Z,3.30
2018-12-19T14:05:17.333Z,3.30
2018-12-19T14:07:43.480Z,3.30
2018-12-19T14:10:09.604Z,3.40
2018-12-19T14:12:35.862Z,3.40
2018-12-19T14:15:02.826Z,3.40
2018-12-19T14:17:28.966Z,3.40
2018-12-19T14:19:55.090Z,3.40
2018-12-19T14:22:21.296Z,3.40
2018-12-19T14:24:47.460Z,3.30
2018-12-19T14:27:13.624Z,3.40
2018-12-19T14:29:39.740Z,3.40
2018-12-19T14:32:05.912Z,3.30
2018-12-19T14:34:32.058Z,3.40
2018-12-19T14:36:58.252Z,3.30
2018-12-19T14:39:24.555Z,3.30
2018-12-19T14:41:50.702Z,3.50
2018-12-19T14:44:16.927Z,3.50
2018-12-19T14:46:43.103Z,3.50
2018-12-19T14:49:13.964Z,3.40
2018-12-19T14:51:40.796Z,3.40
2018-12-19T14:54:07.140Z,3.40
2018-12-19T14:56:33.262Z,3.40
2018-12-19T14:58:59.474Z,3.40
2018-12-19T15:01:25.649Z,3.40
2018-12-19T15:03:51.921Z,3.40
2018-12-19T15:06:18.112Z,3.40
2018-12-19T15:08:44.303Z,3.40
2018-12-19T15:11:10.443Z,3.30
2018-12-19T15:13:36.647Z,3.30
2018-12-19T15:16:03.088Z,3.30
2018-12-19T15:18:29.550Z,3.30
2018-12-19T15:20:55.711Z,3.20
2018-12-19T15:23:21.913Z,3.20
2018-12-19T15:25:48.095Z,3.20
2018-12-19T15:28:14.277Z,3.20
2018-12-19T15:30:40.558Z,3.20
2018-12-19T15:33:06.714Z,3.20
2018-12-19T15:35:32.835Z,3.20
2018-12-19T15:37:58.959Z,3.20
2018-12-19T15:40:25.155Z,3.20
2018-12-19T15:42:51.370Z,3.20
2018-12-19T15:45:17.572Z,3.20
2018-12-19T15:47:43.844Z,3.20
2018-12-19T15:50:10.001Z,3.20
2018-12-19T15:52:36.158Z,3.30
2018-12-19T15:55:02.542Z,3.20
2018-12-19T15:57:28.715Z,3.10
2018-12-19T16:00:03.278Z,3.20
2018-12-19T16:02:29.481Z,3.20
2018-12-19T16:04:55.976Z,3.20
2018-12-19T16:07:22.093Z,3.20
2018-12-19T16:09:48.318Z,3.20
2018-12-19T16:12:14.502Z,3.30
2018-12-19T16:14:40.803Z,3.20
2018-12-19T16:17:07.047Z,3.20
2018-12-19T16:19:33.206Z,3.20
2018-12-19T16:21:59.340Z,3.20
2018-12-19T16:24:25.485Z,3.20
2018-12-19T16:26:51.718Z,3.20
2018-12-19T16:29:17.861Z,3.20
2018-12-19T16:31:44.004Z,3.20
2018-12-19T16:34:10.191Z,3.20
2018-12-19T16:36:36.334Z,3.20
2018-12-19T16:39:06.116Z,3.20
2018-12-19T16:41:32.258Z,3.20
2018-12-19T16:43:58.411Z,3.10
2018-12-19T16:46:24.608Z,3.20
2018-12-19T16:48:50.762Z,3.20
2018-12-19T16:51:16.894Z,3.20
2018-12-19T16:53:43.168Z,3.20
2018-12-19T16:56:09.327Z,3.20
2018-12-19T16:58:35.564Z,3.10
2018-12-19T17:01:01.774Z,3.10
2018-12-19T17:03:28.677Z,3.20
2018-12-19T17:05:54.819Z,3.20
2018-12-19T17:08:21.009Z,3.20
2018-12-19T17:10:47.226Z,3.20
2018-12-19T17:13:13.442Z,3.20
2018-12-19T17:15:39.569Z,3.20
2018-12-19T17:18:05.697Z,3.20
2018-12-19T17:20:33.315Z,3.10
2018-12-19T17:22:59.771Z,3.10
2018-12-19T17:25:25.898Z,3.10
2018-12-19T17:27:52.030Z,3.10
2018-12-19T17:30:18.349Z,3.10
2018-12-19T17:32:44.530Z,3.20
2018-12-19T17:35:10.771Z,3.20
2018-12-19T17:37:36.922Z,3.20
2018-12-19T17:40:04.641Z,3.20
2018-12-19T17:42:37.727Z,3.20
2018-12-19T17:45:04.830Z,3.20
2018-12-19T17:47:31.027Z,3.20
2018-12-19T17:49:57.356Z,3.20
2018-12-19T17:52:30.526Z,3.20
2018-12-19T17:54:56.734Z,3.20
2018-12-19T17:57:22.898Z,3.10
2018-12-19T17:59:49.090Z,3.10
2018-12-19T18:02:15.552Z,3.10
2018-12-19T18:04:41.728Z,3.10
2018-12-19T18:07:07.876Z,3.10
2018-12-19T18:09:34.100Z,3.10
2018-12-19T18:12:00.408Z,3.10
2018-12-19T18:14:26.618Z,3.10
2018-12-19T18:16:53.078Z,3.10
2018-12-19T18:19:23.326Z,3.10
2018-12-19T18:21:47.720Z,3.10
2018-12-19T18:24:13.902Z,3.10
2018-12-19T18:26:40.433Z,3.10
2018-12-19T18:29:06.559Z,3.10
2018-12-19T18:31:32.732Z,3.30
2018-12-19T18:33:58.897Z,3.10
2018-12-19T18:36:25.053Z,3.10
2018-12-19T18:38:51.187Z,3.10
2018-12-19T18:41:17.446Z,3.10
2018-12-19T18:43:43.648Z,3.00
2018-12-19T18:46:09.811Z,3.10
2018-12-19T18:48:36.229Z,3.00
2018-12-19T18:51:02.417Z,3.10
2018-12-19T18:53:28.555Z,3.10
2018-12-19T18:55:54.741Z,3.10
2018-12-19T18:58:20.908Z,3.00
2018-12-19T19:00:47.415Z,3.10
2018-12-19T19:03:15.086Z,3.00
2018-12-19T19:05:41.519Z,3.00
2018-12-19T19:08:07.761Z,3.00
2018-12-19T19:10:34.006Z,3.00
2018-12-19T19:13:00.182Z,2.90
2018-12-19T19:15:26.589Z,3.00
2018-12-19T19:17:52.791Z,2.90
2018-12-19T19:20:18.976Z,2.90
2018-12-19T19:22:45.129Z,3.00
2018-12-19T19:25:11.341Z,2.90
2018-12-19T19:27:37.536Z,2.90
2018-12-19T19:30:06.048Z,2.90
2018-12-19T19:32:32.256Z,2.90
2018-12-19T19:34:58.550Z,2.90
2018-12-19T19:37:24.741Z,2.90
2018-12-19T19:39:50.923Z,2.80
2018-12-19T19:42:23.978Z,2.80
2018-12-19T19:44:50.311Z,2.80
2018-12-19T19:47:16.688Z,2.70
2018-12-19T19:49:50.035Z,2.70
2018-12-19T19:52:16.241Z,2.80
2018-12-19T19:54:42.458Z,2.90
2018-12-19T19:57:08.691Z,2.90
2018-12-19T19:59:34.873Z,2.80
2018-12-19T20:02:01.029Z,2.80
2018-12-19T20:04:27.141Z,2.80
2018-12-19T20:06:58.994Z,2.80
2018-12-19T20:09:21.641Z,2.90
2018-12-19T20:11:47.817Z,2.90
2018-12-19T20:14:14.023Z,3.00
2018-12-19T20:16:46.395Z,3.00
2018-12-19T20:19:12.601Z,3.00
2018-12-19T20:21:38.885Z,3.10
2018-12-19T20:24:05.010Z,3.00
2018-12-19T20:26:31.238Z,3.00
2018-12-19T20:28:57.465Z,3.00
2018-12-19T20:31:23.661Z,3.00
2018-12-19T20:33:49.803Z,3.00
2018-12-19T20:36:16.019Z,3.00
2018-12-19T20:38:42.176Z,2.90
2018-12-19T20:41:08.332Z,2.90
2018-12-19T20:43:39.864Z,2.90
2018-12-19T20:46:02.998Z,2.90
2018-12-19T20:48:29.303Z,2.90
2018-12-19T20:50:55.587Z,2.90
2018-12-19T20:53:21.841Z,2.90
2018-12-19T20:55:49.160Z,3.00
2018-12-19T20:58:15.395Z,3.00
2018-12-19T21:00:41.690Z,3.00
2018-12-19T21:03:07.850Z,3.00
2018-12-19T21:05:34.063Z,3.00
2018-12-19T21:08:00.371Z,3.00
2018-12-19T21:10:26.558Z,3.00
2018-12-19T21:12:52.732Z,3.00
2018-12-19T21:15:18.953Z,3.00
2018-12-19T21:17:51.350Z,3.00
2018-12-19T21:20:17.561Z,2.90
2018-12-19T21:22:43.772Z,3.00
2018-12-19T21:25:10.008Z,3.00
2018-12-19T21:27:36.161Z,2.80
2018-12-19T21:30:03.029Z,2.90
2018-12-19T21:32:29.179Z,2.90
2018-12-19T21:34:55.360Z,3.00
2018-12-19T21:37:21.891Z,3.00
2018-12-19T21:39:48.282Z,3.00
2018-12-19T21:42:14.451Z,3.00
2018-12-19T21:44:40.662Z,2.90
2018-12-19T21:47:06.896Z,2.90
2018-12-19T21:49:33.174Z,2.90
2018-12-19T21:51:59.403Z,2.90
2018-12-19T21:54:25.730Z,2.90
2018-12-19T21:56:52.206Z,3.00
2018-12-19T21:59:18.687Z,2.90
2018-12-19T22:01:45.002Z,3.00
2018-12-19T22:04:18.283Z,2.90
2018-12-19T22:06:44.577Z,3.00
2018-12-19T22:09:10.776Z,2.90
2018-12-19T22:11:36.932Z,3.00
2018-12-19T22:14:03.401Z,3.00
2018-12-19T22:16:35.633Z,3.00
2018-12-19T22:19:02.041Z,3.00
2018-12-19T22:21:28.250Z,2.90
2018-12-19T22:23:54.484Z,2.90
2018-12-19T22:26:20.653Z,3.00
2018-12-19T22:28:46.820Z,2.90
2018-12-19T22:31:13.011Z,2.90
2018-12-19T22:33:39.224Z,2.90
2018-12-19T22:36:05.475Z,3.00
2018-12-19T22:38:31.683Z,3.00
2018-12-19T22:40:57.926Z,3.00
2018-12-19T22:43:24.218Z,3.00
2018-12-19T22:45:50.425Z,3.00
2018-12-19T22:48:16.683Z,3.00
2018-12-19T22:50:42.841Z,2.90
2018-12-19T22:53:09.116Z,3.00
2018-12-19T22:55:35.487Z,3.00
2018-12-19T22:58:01.860Z,3.00
2018-12-19T23:00:30.101Z,3.00
2018-12-19T23:03:02.603Z,3.00
2018-12-19T23:05:35.074Z,3.00
2018-12-19T23:08:01.301Z,3.00
2018-12-19T23:10:27.587Z,3.00
2018-12-19T23:12:53.911Z,3.00
2018-12-19T23:15:20.916Z,2.90
2018-12-19T23:17:47.108Z,2.90
2018-12-19T23:20:13.302Z,3.00
2018-12-19T23:22:46.432Z,3.10
2018-12-19T23:25:12.603Z,3.10
2018-12-19T23:27:38.902Z,3.10
2018-12-19T23:30:06.019Z,3.10
2018-12-19T23:32:39.320Z,3.10
2018-12-19T23:35:05.718Z,3.10
2018-12-19T23:37:31.903Z,3.10
2018-12-19T23:39:58.104Z,3.10
2018-12-19T23:42:31.334Z,3.20
2018-12-19T23:44:57.592Z,3.20
2018-12-19T23:47:23.774Z,3.10
2018-12-19T23:49:50.128Z,3.10
2018-12-19T23:52:16.314Z,3.20
2018-12-19T23:54:42.535Z,3.10
2018-12-19T23:57:08.821Z,3.20
2018-12-19T23:59:35.050Z,3.20
